Latest Coastal Weather Observations for Double Island Point

IDQ60701

Issued at 8:12 am EST Saturday 21 January 2017 (issued every 10 minutes, with the page automatically refreshed every 10 minutes)

About coastal observations | Map of coastal stations | Coastal observations for QLD | Marine services | Other Formats
Station Details ID: 040068 Name: DOUBLE ISLAND POINT LIGHTHOUSE Lat: -25.93 Lon: 153.19 Height: 95.64 m
Data from the previous 72 hours. | See also: Recent months at Double Island Point
Date/Time
EST
Temp
°C
Wind Pressure Rain since
9am
mm
Weather Cloud Vis
km
Sea
Height
m
Swell
Dir  Spd
kts
Gust
kts
hPa Trend Height
m
Period
s
Dir
21/08:00am 27.4 NW 15 19 1007.4 - 0.0 - - - - - - -
21/07:30am 27.0 NW 16 20 1007.4 - 0.0 - - - - - - -
21/07:00am 26.4 NW 15 19 1007.3 - 0.0 - - - - - - -
21/06:30am 26.3 NW 15 20 1007.2 - 0.0 - - - - - - -
21/06:00am 26.6 NNW 17 22 1006.7 - 0.0 - - - - - - -
21/05:30am 26.7 NW 18 25 1005.9 - 0.0 - - - - - - -
21/05:00am 26.7 NW 23 28 1005.2 - 0.0 - - - - - - -
21/04:30am 26.5 NNW 24 32 1004.7 - 0.0 - - - - - - -
21/04:00am 26.2 NNW 23 30 1004.4 - 0.0 - - - - - - -
21/03:30am 26.1 NW 23 30 1004.6 - 0.0 - - - - - - -
21/03:00am 26.3 NW 22 28 1004.6 - 0.0 - - - - - - -
21/02:30am 26.7 NNW 22 29 1004.4 - 0.0 - - - - - - -
21/02:02am 26.8 NNW 24 34 1004.2 - 0.0 - - - - - - -
21/02:00am 26.8 NNW 23 30 1004.4 - 0.0 - - - - - - -
21/01:30am 26.9 NNW 21 26 1004.6 - 0.0 - - - - - - -
21/01:00am 26.9 NNW 20 25 1004.5 - 0.0 - - - - - - -
21/12:30am 27.1 NNW 20 24 1004.5 - 0.0 - - - - - - -
21/12:00am 27.3 NNW 21 26 1004.7 - 0.0 - - - - - - -
 
Date/Time
EST
Temp
°C
Wind Pressure Rain since
9am
mm
Weather Cloud Vis
km
Sea
Height
m
Swell
Dir  Spd
kts
Gust
kts
hPa Trend Height
m
Period
s
Dir
20/11:30pm 27.5 NNW 19 23 1005.3 - 0.0 - - - - - - -
20/11:00pm 27.5 NNW 19 25 1005.6 - 0.0 - - - - - - -
20/10:30pm 27.4 NNW 17 21 1006.1 - 0.0 - - - - - - -
20/10:00pm 27.4 NNW 17 21 1006.2 - 0.0 - - - - - - -
20/09:30pm 27.3 NNW 19 23 1005.8 - 0.0 - - - - - - -
20/09:00pm 27.1 NNW 15 19 1005.2 - 0.0 - - - - - - -
20/08:30pm 27.2 NNW 14 21 1005.4 - 0.0 - - - - - - -
20/08:00pm 27.4 NNW 14 19 1005.4 - 0.0 - - - - - - -
20/07:30pm 27.8 NNW 13 17 1004.9 - 0.0 - - - - - - -
20/07:00pm 28.1 NNW 8 14 1004.9 - 0.0 - - - - - - -
20/06:30pm 28.8 N 6 8 1004.5 - 0.0 - - - - - - -
20/06:00pm 29.7 NNE 4 6 1004.5 - 0.0 - - - - - - -
20/05:30pm 30.2 N 4 8 1004.0 - 0.0 - - - - - - -
20/05:00pm 30.2 NNE 6 9 1003.7 - 0.0 - - - - - - -
20/04:30pm 30.3 NNW 7 12 1003.7 - 0.0 - - - - - - -
20/04:00pm 30.3 NNE 16 21 1003.5 - 0.0 - - - - - - -
20/03:30pm 30.7 NNE 15 19 1004.0 - 0.0 - - - - - - -
20/03:00pm 31.0 NNE 14 18 1004.6 - 0.0 - - - - - - -
20/02:30pm 31.2 NNE 15 18 1005.0 - 0.0 - - - - - - -
20/02:00pm 31.9 NNE 14 18 1005.7 - 0.0 - - - - - - -
20/01:30pm 32.3 NNE 13 17 1006.5 - 0.0 - - - - - - -
20/01:00pm 32.1 NNE 12 15 1007.0 - 0.0 - - - - - - -
20/12:30pm 32.0 NNE 10 13 1007.4 - 0.0 - - - - - - -
20/12:00pm 33.3 NNE 8 10 1007.7 - 0.0 - - - - - - -
20/11:30am 32.7 NNE 8 10 1007.9 - 0.0 - - - - - - -
20/11:00am 32.0 NNE 7 9 1008.3 - 0.0 - - - - - - -
20/10:30am 31.5 N 4 7 1008.9 - 0.0 - - - - - - -
20/10:00am 30.7 NNE 5 6 1009.1 - 0.0 - - - - - - -
20/09:30am 29.5 E 5 6 1009.4 - 0.0 - - - - - - -
20/09:00am 28.1 SE 5 7 1009.3 - 0.0 - - - - - - -
20/08:30am 27.0 SSE 8 10 1009.2 - 0.0 - - - - - - -
20/08:00am 27.0 SSE 9 12 1009.4 - 0.0 - - - - - - -
20/07:30am 26.2 S 8 10 1009.4 - 0.0 - - - - - - -
20/07:00am 25.6 S 9 11 1009.2 - 0.0 - - - - - - -
20/06:30am 25.6 S 9 9 1009.2 - 0.0 - - - - - - -
20/06:00am 24.8 S 9 10 1009.2 - 0.0 - - - - - - -
20/05:30am 24.1 S 9 10 1008.8 - 0.0 - - - - - - -
20/05:00am 24.2 SSE 5 6 1008.6 - 0.0 - - - - - - -
20/04:30am 24.3 SSE 6 7 1008.1 - 0.0 - - - - - - -
20/04:00am 24.5 SE 7 8 1008.1 - 0.0 - - - - - - -
20/03:30am 24.6 SE 8 9 1008.1 - 0.0 - - - - - - -
20/03:00am 24.6 SSE 9 10 1008.1 - 0.0 - - - - - - -
20/02:30am 24.6 SE 10 12 1008.3 - 0.0 - - - - - - -
20/02:00am 24.8 SE 12 13 1008.5 - 0.0 - - - - - - -
20/01:30am 24.8 SSE 14 16 1008.7 - 0.0 - - - - - - -
20/01:00am 25.0 SE 15 17 1008.9 - 0.0 - - - - - - -
20/12:30am 25.0 SE 16 17 1009.2 - 0.0 - - - - - - -
20/12:00am 25.1 SE 18 20 1009.3 - 0.0 - - - - - - -
 
Date/Time
EST
Temp
°C
Wind Pressure Rain since
9am
mm
Weather Cloud Vis
km
Sea
Height
m
Swell
Dir  Spd
kts
Gust
kts
hPa Trend Height
m
Period
s
Dir
19/11:30pm 25.0 SE 18 20 1009.7 - 0.0 - - - - - - -
19/11:00pm 25.1 SE 17 19 1009.7 - 0.0 - - - - - - -
19/10:30pm 25.1 SE 20 23 1009.7 - 0.0 - - - - - - -
19/10:00pm 25.1 SE 18 21 1010.0 - 0.0 - - - - - - -
19/09:30pm 25.2 SE 21 23 1009.7 - 0.0 - - - - - - -
19/09:00pm 25.3 SE 22 24 1009.7 - 0.0 - - - - - - -
19/08:30pm 25.3 SSE 19 22 1010.0 - 0.0 - - - - - - -
19/08:00pm 25.3 SSE 20 23 1009.9 - 0.0 - - - - - - -
19/07:30pm 25.5 SSE 21 23 1009.8 - 0.0 - - - - - - -
19/07:00pm 25.4 SSE 18 20 1009.5 - 0.0 - - - - - - -
19/06:30pm 25.6 SE 21 24 1009.0 - 0.0 - - - - - - -
19/06:00pm 25.8 SE 21 23 1009.0 - 0.0 - - - - - - -
19/05:30pm 26.2 SE 22 25 1008.6 - 0.0 - - - - - - -
19/05:00pm 26.5 SE 23 25 1008.2 - 0.0 - - - - - - -
19/04:30pm 26.8 SE 23 27 1007.8 - 0.0 - - - - - - -
19/04:00pm 27.2 SE 21 24 1008.0 - 0.0 - - - - - - -
19/03:30pm 27.2 SE 21 24 1008.4 - 0.0 - - - - - - -
19/03:00pm 27.5 SSE 20 23 1008.8 - 0.0 - - - - - - -
19/02:30pm 28.1 SSE 18 21 1009.1 - 0.0 - - - - - - -
19/02:00pm 28.2 SSE 19 22 1009.4 - 0.0 - - - - - - -
19/01:30pm 27.2 SSE 20 24 1009.7 - 0.0 - - - - - - -
19/01:00pm 29.1 SSE 20 25 1009.8 - 0.0 - - - - - - -
19/12:30pm 28.3 SSE 19 23 1010.1 - 0.0 - - - - - - -
19/12:00pm 27.7 SSE 21 25 1010.0 - 0.0 - - - - - - -
19/11:30am 28.0 SSE 19 24 1010.1 - 0.0 - - - - - - -
19/11:00am 27.9 S 19 23 1010.3 - 0.0 - - - - - - -
19/10:30am 27.9 S 18 23 1010.4 - 0.0 - - - - - - -
19/10:00am 28.7 SE 11 15 1010.6 - 0.0 - - - - - - -
19/09:30am 29.2 ENE 7 13 1010.6 - 0.0 - - - - - - -
19/09:00am 30.1 NNW 7 10 1010.5 - 0.0 - - - - - - -
19/08:30am 28.6 NNW 11 15 1010.4 - 0.0 - - - - - - -
19/08:00am 27.5 NW 13 17 1010.5 - 0.0 - - - - - - -
19/07:30am 26.7 NW 14 21 1010.4 - 0.0 - - - - - - -
19/07:00am 25.6 NW 19 25 1009.7 - 0.0 - - - - - - -
19/06:30am 25.1 NW 19 23 1009.5 - 0.0 - - - - - - -
19/06:00am 25.0 NW 17 23 1009.0 - 0.0 - - - - - - -
19/05:30am 24.7 NW 18 23 1008.6 - 0.0 - - - - - - -
19/05:00am 24.7 NW 20 24 1008.3 - 0.0 - - - - - - -
19/04:30am 25.0 NW 18 23 1007.8 - 0.0 - - - - - - -
19/04:00am 25.1 NW 18 23 1007.6 - 0.0 - - - - - - -
19/03:30am 25.0 NW 17 21 1007.6 - 0.0 - - - - - - -
19/03:00am 24.8 NW 18 22 1007.5 - 0.0 - - - - - - -
19/02:30am 24.9 NW 18 22 1007.6 - 0.0 - - - - - - -
19/02:00am 25.7 NNW 19 25 1007.8 - 0.0 - - - - - - -
19/01:30am 25.6 NNW 20 24 1008.1 - 0.0 - - - - - - -
19/01:00am 25.7 NNW 19 24 1008.6 - 0.0 - - - - - - -
19/12:30am 25.7 NNW 18 22 1009.0 - 0.0 - - - - - - -
19/12:00am 25.7 NNW 18 23 1009.4 - 0.0 - - - - - - -
 
Date/Time
EST
Temp
°C
Wind Pressure Rain since
9am
mm
Weather Cloud Vis
km
Sea
Height
m
Swell
Dir  Spd
kts
Gust
kts
hPa Trend Height
m
Period
s
Dir
18/11:30pm 25.8 NNW 17 21 1009.6 - 0.0 - - - - - - -
18/11:00pm 25.9 NNW 17 20 1010.0 - 0.0 - - - - - - -
18/10:30pm 26.0 NNW 16 19 1010.1 - 0.0 - - - - - - -
18/10:00pm 26.1 NNW 15 18 1010.1 - 0.0 - - - - - - -
18/09:30pm 26.2 NNW 13 17 1010.0 - 0.0 - - - - - - -
18/09:00pm 26.3 NNW 13 19 1009.9 - 0.0 - - - - - - -
18/08:30pm 26.5 NNW 13 21 1009.7 - 0.0 - - - - - - -
18/08:13pm 26.4 NNW 13 19 1009.7 - 0.0 - - - - - - -
18/08:00pm 26.3 N 6 9 1009.6 - 0.0 - - - - - - -
18/07:30pm 26.2 N 5 8 1009.5 - 0.0 - - - - - - -
18/07:00pm 26.3 N 5 9 1009.3 - 0.0 - - - - - - -
18/06:30pm 26.7 N 7 20 1009.3 - 0.0 - - - - - - -
18/06:00pm 27.4 N 9 19 1009.1 - 0.0 - - - - - - -
18/05:30pm 27.9 N 10 18 1009.2 - 0.0 - - - - - - -
18/05:00pm 28.5 N 15 23 1009.2 - 0.0 - - - - - - -
18/04:30pm 28.9 N 16 23 1009.2 - 0.0 - - - - - - -
18/04:08pm 29.0 NNE 17 27 1009.2 - 0.0 - - - - - - -
18/04:00pm 29.2 NNE 16 25 1009.3 - 0.0 - - - - - - -
18/03:30pm 29.8 NNE 15 23 1009.5 - 0.0 - - - - - - -
18/03:00pm 30.2 NNE 17 22 1009.8 - 0.0 - - - - - - -
18/02:30pm 30.1 NNE 15 22 1010.1 - 0.0 - - - - - - -
18/02:00pm 30.9 NNE 16 22 1010.6 - 0.0 - - - - - - -
18/01:30pm 31.3 NNE 17 21 1011.1 - 0.0 - - - - - - -
18/01:00pm 31.6 NNE 16 19 1011.5 - 0.0 - - - - - - -
18/12:30pm 30.3 N 10 15 1011.8 - 0.0 - - - - - - -
18/12:00pm 31.1 NNE 15 18 1012.4 - 0.0 - - - - - - -
18/11:30am 32.0 NNE 14 16 1013.1 - 0.0 - - - - - - -
18/11:00am 31.5 NNE 12 14 1013.5 - 0.0 - - - - - - -
18/10:30am 31.0 NNE 11 13 1013.7 - 0.0 - - - - - - -
18/10:00am 30.8 N 4 7 1014.0 - 0.0 - - - - - - -
18/09:30am 29.8 NNW 4 7 1014.3 - 0.0 - - - - - - -
18/09:00am 29.1 NNW 6 9 1014.6 - 0.0 - - - - - - -
18/08:30am 27.7 NNW 7 10 1014.5 - 0.0 - - - - - - -

Other Formats:

Comma delimited format used in spreadsheet applications
http://www.bom.gov.au/fwo/IDQ60701/IDQ60701.94584.axf

JavaScript Object Notation format (JSON) in row-major order
http://www.bom.gov.au/fwo/IDQ60701/IDQ60701.94584.json